Delmar, South Carolina
Current Conditions -  °F | °C
As of 1:56 PM on Monday 22 Dec 2014 (Local Time) from KCAE Reporting Station
Overcast Overcast  
Wind Chill: 42°   Ceiling: 500
Heat Index: 45°   Visibility: 9mi
Dew Point: 43°   Wind: 6mph
Humidity: 93%   Direction: 20°NNE
Pressure: 30.01"   Gusts: NA
Location:  33.8822°N, 81.433°W
Report Text: KCAE 221856Z 02005KT 9SM OVC005 07/06 A3001 RMK AO2 RAE48 SLP161 P0003 T00720061
Loading
Personal Weather Stations






























Interactive Weather Map New forecast layout! Learn more

10-Day Weather Forecast

Advertisements
Track Severe Weather on mobile